Time;durP1;ratioP1;P1;durP2;ratioP2;P2;SDS_P1;SDS_P2;PMS_P1;PMS_P2;Temp;Humidity;BMP_temperature;BMP_pressure;BME280_temperature;BME280_humidity;BME280_pressure;Samples;Min_cycle;Max_cycle;Signal;HPM_P1;HPM_P2
2021/05/29 00:02:11;;;;;;;;;0.00;0.00;;;;;17.25;52.74;101576.81;5041279;28;45457;-63
2021/05/29 00:04:36;;;;;;;;;0.00;0.00;;;;;17.15;52.51;101568.03;5042050;28;45374;-62
2021/05/29 00:07:02;;;;;;;;;0.00;0.00;;;;;17.18;53.52;101581.00;5041325;28;45356;-62
2021/05/29 00:09:28;;;;;;;;;0.00;0.00;;;;;17.15;53.07;101565.38;5041587;28;45296;-62
2021/05/29 00:11:53;;;;;;;;;0.00;0.00;;;;;17.12;52.95;101577.09;5023416;28;45530;-62
2021/05/29 00:14:19;;;;;;;;;0.00;0.00;;;;;17.11;52.63;101571.94;5041679;28;45327;-62
2021/05/29 00:16:44;;;;;;;;;0.00;0.00;;;;;17.09;54.15;101568.59;5040993;28;46394;-62
2021/05/29 00:19:10;;;;;;;;;0.00;0.00;;;;;17.07;53.23;101565.25;5043889;28;45363;-63
2021/05/29 00:21:35;;;;;;;;;0.00;0.00;;;;;17.05;54.12;101569.84;5047882;28;45461;-62
2021/05/29 00:24:00;;;;;;;;;0.00;0.00;;;;;17.01;54.67;101561.31;5041920;28;45348;-62
2021/05/29 00:26:26;;;;;;;;;0.00;0.00;;;;;16.99;53.74;101564.13;5040921;28;45415;-62
2021/05/29 00:28:52;;;;;;;;;0.00;0.00;;;;;16.99;53.66;101571.25;5041198;28;45323;-63
2021/05/29 00:31:18;;;;;;;;;0.00;0.00;;;;;16.96;53.73;101561.75;5023270;28;45426;-62
2021/05/29 00:33:44;;;;;;;;;0.00;0.00;;;;;16.90;55.19;101577.41;5041541;28;45212;-62
2021/05/29 00:36:09;;;;;;;;;0.00;0.00;;;;;16.91;54.31;101574.63;5041322;28;45243;-63
2021/05/29 00:38:34;;;;;;;;;0.00;0.00;;;;;16.90;54.32;101575.59;5041244;28;45205;-62
2021/05/29 00:41:07;;;;;;;;;0.00;0.00;;;;;16.91;54.17;101576.41;5040725;28;45217;-62
2021/05/29 00:43:32;;;;;;;;;0.00;0.00;;;;;16.83;54.56;101571.81;5041177;28;45306;-62
2021/05/29 00:45:58;;;;;;;;;0.00;0.00;;;;;16.85;54.02;101571.69;5022918;28;47198;-62
2021/05/29 00:48:23;;;;;;;;;0.00;0.00;;;;;16.83;54.18;101571.81;5041208;28;45203;-62
2021/05/29 00:50:48;;;;;;;;;0.00;0.00;;;;;16.81;55.32;101569.31;5041117;28;45375;-63
2021/05/29 00:53:16;;;;;;;;;0.00;0.00;;;;;16.78;55.41;101569.56;5041318;28;45252;-63
2021/05/29 00:55:42;;;;;;;;;0.00;0.00;;;;;16.75;54.99;101569.00;5022398;28;46235;-62
2021/05/29 00:58:07;;;;;;;;;0.75;0.75;;;;;16.71;55.53;101562.28;5040877;28;45447;-62
2021/05/29 01:00:33;;;;;;;;;0.00;0.00;;;;;16.65;55.59;101566.34;5040647;28;45261;-62
2021/05/29 01:02:58;;;;;;;;;0.00;0.00;;;;;16.61;55.67;101560.47;5041073;28;45510;-62
2021/05/29 01:05:23;;;;;;;;;0.00;0.00;;;;;16.56;55.86;101565.34;5040501;28;45301;-62
2021/05/29 01:07:51;;;;;;;;;0.00;0.00;;;;;16.51;55.89;101561.44;5040809;28;45303;-62
2021/05/29 01:10:18;;;;;;;;;0.00;0.00;;;;;16.46;55.85;101555.69;5040843;28;45259;-62
2021/05/29 01:12:44;;;;;;;;;0.00;0.00;;;;;16.40;56.50;101557.94;5040777;28;45239;-61
2021/05/29 01:15:10;;;;;;;;;0.00;0.00;;;;;16.38;56.35;101559.03;5022509;28;47324;-62
2021/05/29 01:17:36;;;;;;;;;0.00;0.00;;;;;16.35;57.03;101562.81;5040851;28;45375;-62
2021/05/29 01:20:02;;;;;;;;;0.00;0.00;;;;;16.32;56.55;101564.88;5040674;28;45319;-61
2021/05/29 01:22:40;;;;;;;;;0.00;0.00;;;;;16.29;57.21;101563.34;5045582;28;45547;-63
2021/05/29 01:25:30;;;;;;;;;0.00;0.00;;;;;16.26;57.96;101558.31;5048075;28;45352;-62
2021/05/29 01:27:59;;;;;;;;;0.00;0.00;;;;;16.24;57.09;101564.72;5060572;28;45488;-62
2021/05/29 01:30:25;;;;;;;;;0.00;0.00;;;;;16.21;57.12;101565.84;5060509;28;45321;-61
2021/05/29 01:32:52;;;;;;;;;0.00;0.00;;;;;16.22;57.09;101566.66;5060706;28;45318;-62
2021/05/29 01:35:17;;;;;;;;;0.00;0.00;;;;;16.25;56.74;101572.56;5060252;28;45381;-63
2021/05/29 01:37:43;;;;;;;;;1.50;1.50;;;;;16.27;57.11;101575.06;5060496;28;45216;-63
2021/05/29 01:40:09;;;;;;;;;0.00;0.00;;;;;16.24;56.54;101562.06;5060703;28;45287;-62
2021/05/29 01:42:38;;;;;;;;;0.00;0.00;;;;;16.29;57.22;101578.44;5060084;28;45457;-61
2021/05/29 01:45:07;;;;;;;;;0.00;0.00;;;;;16.32;56.75;101578.16;5060390;28;46392;-62
2021/05/29 01:47:34;;;;;;;;;0.00;0.00;;;;;16.31;56.56;101573.84;5060199;28;45747;-62
2021/05/29 01:50:03;;;;;;;;;0.00;0.00;;;;;16.31;57.39;101577.31;5060944;28;45231;-63
2021/05/29 01:52:53;;;;;;;;;0.00;0.00;;;;;16.33;56.60;101574.53;5060617;28;45388;-62
2021/05/29 01:55:21;;;;;;;;;0.00;0.00;;;;;16.37;56.17;101578.56;5057014;28;46402;-62
2021/05/29 01:57:47;;;;;;;;;0.00;0.00;;;;;16.40;57.47;101573.00;5041659;28;45420;-62
2021/05/29 02:00:14;;;;;;;;;0.00;0.00;;;;;16.43;56.24;101575.38;5060099;28;45387;-63
2021/05/29 02:02:39;;;;;;;;;0.00;0.00;;;;;16.47;55.85;101576.78;5042125;28;45268;-62
2021/05/29 02:05:19;;;;;;;;;0.00;0.00;;;;;16.50;56.21;101576.53;5060066;28;45441;-62
2021/05/29 02:07:46;;;;;;;;;0.00;0.00;;;;;16.51;56.19;101578.19;5061762;28;45326;-62
2021/05/29 02:10:15;;;;;;;;;0.00;0.00;;;;;16.50;55.99;101579.16;5063743;28;45272;-62
2021/05/29 02:12:44;;;;;;;;;0.00;0.00;;;;;16.47;56.23;101570.63;5045490;28;45327;-62
2021/05/29 02:15:13;;;;;;;;;0.00;0.00;;;;;16.44;56.18;101577.06;5063122;28;45931;-63
2021/05/29 02:17:38;;;;;;;;;0.00;0.00;;;;;16.38;55.94;101567.81;5063722;28;45369;-63
2021/05/29 02:20:06;;;;;;;;;0.00;0.00;;;;;16.39;56.31;101579.25;5063528;28;45353;-62
2021/05/29 02:22:32;;;;;;;;;0.00;0.00;;;;;16.38;56.34;101572.31;5050346;28;45342;-62
2021/05/29 02:24:58;;;;;;;;;0.00;0.00;;;;;16.35;56.30;101573.41;5043529;28;45545;-62
2021/05/29 02:27:23;;;;;;;;;0.00;0.00;;;;;16.36;56.22;101576.91;5043089;28;45141;-62
2021/05/29 02:29:49;;;;;;;;;0.00;0.00;;;;;16.29;56.39;101581.91;5043302;28;45283;-62
2021/05/29 02:32:14;;;;;;;;;0.00;0.00;;;;;16.27;56.51;101583.84;5043207;28;45390;-62
2021/05/29 02:34:39;;;;;;;;;0.00;0.00;;;;;16.24;56.04;101586.78;5043066;28;46767;-61
2021/05/29 02:37:05;;;;;;;;;0.00;0.00;;;;;16.22;56.55;101587.88;5042961;28;45232;-62
2021/05/29 02:39:30;;;;;;;;;0.00;0.00;;;;;16.19;56.49;101592.47;5043182;28;45161;-62
2021/05/29 02:41:56;;;;;;;;;0.00;0.00;;;;;16.19;56.53;101589.00;5042882;28;45205;-61
2021/05/29 02:44:21;;;;;;;;;0.00;0.00;;;;;16.15;56.55;101585.75;5061604;28;47321;-62
2021/05/29 02:46:46;;;;;;;;;0.00;0.00;;;;;16.16;56.46;101589.28;5049779;28;45400;-62
2021/05/29 02:49:11;;;;;;;;;0.00;0.00;;;;;16.13;56.55;101579.78;5043071;28;45318;-62
2021/05/29 02:51:37;;;;;;;;;0.00;0.00;;;;;16.10;56.81;101581.84;5043263;28;45342;-62
2021/05/29 02:54:02;;;;;;;;;0.00;0.00;;;;;16.09;56.56;101583.69;5042587;28;46448;-62
2021/05/29 02:56:28;;;;;;;;;0.00;0.00;;;;;16.08;56.53;101586.44;5042512;28;45309;-63
2021/05/29 02:58:54;;;;;;;;;0.00;0.00;;;;;16.04;56.78;101587.69;5042423;28;45371;-63
2021/05/29 03:01:19;;;;;;;;;0.00;0.00;;;;;16.01;56.80;101586.16;5042875;28;45293;-63
2021/05/29 03:03:45;;;;;;;;;0.00;0.00;;;;;15.98;57.13;101589.06;5042337;28;45315;-62
2021/05/29 03:06:10;;;;;;;;;0.00;0.00;;;;;15.96;56.99;101591.00;5042761;28;45414;-64
2021/05/29 03:08:35;;;;;;;;;0.00;0.00;;;;;15.92;57.26;101581.66;5042704;28;45389;-62
2021/05/29 03:11:01;;;;;;;;;0.00;0.00;;;;;15.91;57.25;101590.56;5042666;28;45351;-61
2021/05/29 03:13:26;;;;;;;;;0.00;0.00;;;;;15.88;57.48;101594.31;5042044;28;47169;-63
2021/05/29 03:15:52;;;;;;;;;0.00;0.00;;;;;15.86;57.41;101590.97;5042460;28;45188;-62
2021/05/29 03:18:17;;;;;;;;;0.00;0.00;;;;;15.83;57.44;101596.53;5042193;28;45337;-62
2021/05/29 03:20:43;;;;;;;;;0.00;0.00;;;;;15.80;57.56;101583.53;5045398;28;45264;-63
2021/05/29 03:23:09;;;;;;;;;0.00;0.00;;;;;15.78;57.50;101596.09;5043557;28;46359;-62
2021/05/29 03:25:34;;;;;;;;;0.00;0.00;;;;;15.76;57.68;101600.66;5041981;28;45426;-63
2021/05/29 03:28:00;;;;;;;;;0.00;0.00;;;;;15.73;57.89;101599.13;5042451;28;45241;-63
2021/05/29 03:30:28;;;;;;;;;0.00;0.00;;;;;15.71;58.16;101601.06;5050968;28;45425;-62
2021/05/29 03:32:55;;;;;;;;;0.00;0.00;;;;;15.68;58.03;101597.81;5023805;28;47211;-64
2021/05/29 03:35:21;;;;;;;;;0.00;0.00;;;;;15.65;58.07;101600.72;5042214;28;45382;-64
2021/05/29 03:37:46;;;;;;;;;0.00;0.00;;;;;15.65;58.41;101600.72;5042148;28;45318;-63
2021/05/29 03:40:14;;;;;;;;;0.00;0.00;;;;;15.63;58.58;101605.31;5042429;28;45158;-65
2021/05/29 03:42:40;;;;;;;;;0.00;0.00;;;;;15.58;58.63;101598.59;5041596;28;45419;-64
2021/05/29 03:45:08;;;;;;;;;0.00;0.00;;;;;15.58;58.55;101595.94;5042235;28;45204;-63
2021/05/29 03:47:34;;;;;;;;;0.00;0.00;;;;;15.58;58.51;101595.13;5042102;28;45268;-63
2021/05/29 03:49:59;;;;;;;;;0.00;0.00;;;;;15.57;58.59;101596.94;5042317;28;45371;-63
2021/05/29 03:52:25;;;;;;;;;0.00;0.00;;;;;15.58;58.69;101598.59;5041599;28;46260;-62
2021/05/29 03:54:50;;;;;;;;;0.00;0.00;;;;;15.59;58.99;101604.72;5041925;28;45276;-65
2021/05/29 03:57:15;;;;;;;;;0.00;0.00;;;;;15.52;59.14;101599.13;5041472;28;45675;-63
2021/05/29 03:59:41;;;;;;;;;0.00;0.00;;;;;15.46;59.15;101607.56;5042157;28;45305;-64
2021/05/29 04:02:06;;;;;;;;;0.00;0.00;;;;;15.41;59.49;101611.59;5041263;28;46416;-63
2021/05/29 04:04:32;;;;;;;;;0.00;0.00;;;;;15.35;59.19;101612.94;5041800;28;45305;-63
2021/05/29 04:06:59;;;;;;;;;0.00;0.00;;;;;15.29;60.78;101618.75;5041728;28;45256;-63
2021/05/29 04:09:24;;;;;;;;;0.00;0.00;;;;;15.23;60.52;101620.13;5041910;28;45580;-62
2021/05/29 04:11:49;;;;;;;;;0.00;0.00;;;;;15.17;60.37;101626.75;5041100;28;45822;-62
2021/05/29 04:14:15;;;;;;;;;0.00;0.00;;;;;15.17;60.04;101621.44;5041110;28;45224;-62
2021/05/29 04:16:40;;;;;;;;;0.00;0.00;;;;;15.22;60.16;101622.88;5041233;28;45339;-64
2021/05/29 04:19:05;;;;;;;;;0.00;0.00;;;;;15.20;60.16;101628.28;5041743;28;45519;-62
2021/05/29 04:21:31;;;;;;;;;0.00;0.00;;;;;15.21;59.91;101631.81;5046267;28;46270;-63
2021/05/29 04:23:56;;;;;;;;;0.00;0.00;;;;;15.22;60.38;101631.66;5041405;28;45219;-63
2021/05/29 04:26:22;;;;;;;;;0.00;0.00;;;;;15.21;60.63;101629.97;5041132;28;45352;-62
2021/05/29 04:28:49;;;;;;;;;0.00;0.00;;;;;15.23;60.61;101627.22;5041549;28;45519;-62
2021/05/29 04:31:14;;;;;;;;;0.00;0.00;;;;;15.20;61.29;101624.81;5040593;28;46437;-62
2021/05/29 04:33:40;;;;;;;;;1.00;1.00;;;;;15.16;60.60;101624.22;5041172;28;45338;-63
2021/05/29 04:36:05;;;;;;;;;0.00;0.00;;;;;15.15;61.87;101620.75;5041237;28;45407;-63
2021/05/29 04:38:31;;;;;;;;;0.00;0.00;;;;;15.18;61.22;101624.94;5041271;28;45470;-63
2021/05/29 04:40:56;;;;;;;;;0.00;0.00;;;;;15.16;60.61;101627.72;5040619;28;45574;-62
2021/05/29 04:43:22;;;;;;;;;0.00;0.00;;;;;15.13;62.65;101633.25;5040893;28;45279;-62
2021/05/29 04:45:48;;;;;;;;;0.00;0.00;;;;;15.12;62.09;101631.59;5040893;28;45333;-64
2021/05/29 04:48:14;;;;;;;;;0.00;0.00;;;;;15.12;61.99;101639.53;5041281;28;45434;-64
2021/05/29 04:53:25;;;;;;;;;0.00;0.00;;;;;15.20;60.86;101638.03;5041026;28;45229;-63
2021/05/29 04:55:51;;;;;;;;;0.00;0.00;;;;;15.27;61.37;101644.50;5041067;28;45268;-64
2021/05/29 04:58:17;;;;;;;;;0.00;0.00;;;;;15.31;61.33;101641.50;5041022;28;45423;-61
2021/05/29 05:00:42;;;;;;;;;0.00;0.00;;;;;15.36;60.68;101644.59;5040669;28;46483;-62
2021/05/29 05:03:07;;;;;;;;;0.00;0.00;;;;;15.38;61.19;101652.41;5054370;28;45243;-63
2021/05/29 05:05:33;;;;;;;;;0.75;0.00;;;;;15.39;61.12;101649.59;5061190;28;45236;-62
2021/05/29 05:07:59;;;;;;;;;0.00;0.00;;;;;15.41;61.84;101653.94;5042348;28;45776;-64
2021/05/29 05:10:24;;;;;;;;;0.00;0.00;;;;;15.44;60.57;101654.50;5060919;28;46380;-64
2021/05/29 05:12:50;;;;;;;;;0.00;0.00;;;;;15.51;60.44;101649.56;5060573;28;45319;-63
2021/05/29 05:15:15;;;;;;;;;0.00;0.00;;;;;15.58;60.59;101643.63;5060811;28;45343;-65
2021/05/29 05:17:41;;;;;;;;;0.00;0.00;;;;;15.67;59.81;101649.09;5060673;28;45266;-64
2021/05/29 05:20:07;;;;;;;;;0.00;0.00;;;;;15.68;60.47;101648.97;5060399;28;45388;-63
2021/05/29 05:22:34;;;;;;;;;0.00;0.00;;;;;15.68;60.04;101648.13;5025564;28;45872;-63
2021/05/29 05:24:59;;;;;;;;;0.00;0.00;;;;;15.69;60.26;101650.66;5042499;28;45377;-62
2021/05/29 05:27:24;;;;;;;;;0.00;0.00;;;;;15.72;60.08;101652.22;5060462;28;45251;-63
2021/05/29 05:29:49;;;;;;;;;0.00;0.00;;;;;15.76;60.09;101654.47;5060425;28;45497;-62
2021/05/29 05:32:15;;;;;;;;;0.00;0.00;;;;;15.79;60.16;101648.09;5060441;28;45239;-64
2021/05/29 05:34:40;;;;;;;;;0.00;0.00;;;;;15.88;59.64;101649.13;5060358;28;45319;-63
2021/05/29 05:37:07;;;;;;;;;0.00;0.00;;;;;16.01;59.69;101660.34;5060696;28;45527;-65
2021/05/29 05:39:32;;;;;;;;;0.00;0.00;;;;;16.14;59.28;101660.97;5060138;28;47112;-62
2021/05/29 05:41:57;;;;;;;;;0.00;0.00;;;;;16.30;58.74;101657.81;5042142;28;45319;-64
2021/05/29 05:44:23;;;;;;;;;0.00;0.00;;;;;16.44;58.37;101658.44;5063474;28;45262;-63
2021/05/29 05:46:48;;;;;;;;;0.00;0.00;;;;;16.59;58.25;101671.16;5064309;28;45627;-64
2021/05/29 05:49:14;;;;;;;;;0.00;0.00;;;;;16.79;57.45;101672.03;5063401;28;45301;-66
2021/05/29 05:51:39;;;;;;;;;0.00;0.00;;;;;16.95;57.31;101671.56;5063695;28;45342;-63
2021/05/29 05:54:05;;;;;;;;;0.00;0.00;;;;;17.07;56.87;101671.41;5063590;28;45412;-63
2021/05/29 05:56:30;;;;;;;;;0.00;0.00;;;;;17.13;56.76;101679.66;5063813;28;45533;-63
2021/05/29 05:58:57;;;;;;;;;0.00;0.00;;;;;17.25;56.66;101683.00;5026153;28;45449;-65
2021/05/29 06:01:25;;;;;;;;;0.00;0.00;;;;;17.45;56.06;101685.66;5055775;28;45209;-65
2021/05/29 06:03:51;;;;;;;;;0.00;0.00;;;;;17.61;55.87;101688.59;5043893;28;45165;-62
2021/05/29 06:06:16;;;;;;;;;0.00;0.00;;;;;17.77;55.29;101686.16;5043597;28;45252;-63
2021/05/29 06:08:42;;;;;;;;;2.00;2.00;;;;;17.95;54.96;101704.91;5043183;28;45387;-63
2021/05/29 06:11:07;;;;;;;;;0.00;0.00;;;;;18.12;54.88;101702.47;5042832;28;45431;-63
2021/05/29 06:21:10;;;;;;;;;0.00;0.00;;;;;18.83;52.91;101718.72;5048806;28;45405;-64
2021/05/29 06:23:36;;;;;;;;;0.00;0.00;;;;;19.05;52.26;101719.28;5043338;28;45324;-63
2021/05/29 06:26:02;;;;;;;;;0.00;0.00;;;;;19.33;52.00;101716.53;5043290;28;45470;-63
2021/05/29 06:28:27;;;;;;;;;0.00;0.00;;;;;19.54;50.86;101722.38;5043230;28;45463;-64
2021/05/29 06:30:53;;;;;;;;;0.00;0.00;;;;;19.76;50.79;101706.91;5042690;28;45304;-64
2021/05/29 06:33:18;;;;;;;;;0.00;0.00;;;;;20.15;50.15;101717.16;5043409;28;45280;-64
2021/05/29 06:35:43;;;;;;;;;0.00;0.00;;;;;20.49;49.56;101712.66;5043079;28;45461;-63
2021/05/29 06:38:09;;;;;;;;;0.00;0.00;;;;;20.80;49.05;101720.16;5043004;28;46242;-64
2021/05/29 06:40:34;;;;;;;;;0.00;0.00;;;;;21.05;48.31;101714.84;5042473;28;45338;-64
2021/05/29 06:43:00;;;;;;;;;0.00;0.00;;;;;21.29;48.00;101720.25;5042576;28;45254;-63
2021/05/29 06:45:26;;;;;;;;;0.00;0.00;;;;;21.55;47.34;101724.59;5042712;28;45495;-63
2021/05/29 06:47:51;;;;;;;;;0.00;0.00;;;;;21.84;47.18;101728.63;5042401;28;46293;-63
2021/05/29 06:50:17;;;;;;;;;0.00;0.00;;;;;22.11;46.47;101730.88;5042491;28;45416;-62
2021/05/29 06:52:47;;;;;;;;;0.00;0.00;;;;;22.39;45.75;101722.47;5042226;28;45239;-63
2021/05/29 07:00:40;;;;;;;;;0.00;0.00;;;;;22.86;44.50;101729.63;5041754;28;45339;-64
2021/05/29 07:03:06;;;;;;;;;0.00;0.00;;;;;22.92;44.10;101731.59;5042556;28;45327;-63
2021/05/29 07:05:31;;;;;;;;;0.00;0.00;;;;;23.01;43.32;101724.38;5034533;28;45578;-64
2021/05/29 07:07:57;;;;;;;;;0.00;0.00;;;;;23.01;43.30;101724.38;5048830;28;46484;-64
2021/05/29 07:10:23;;;;;;;;;0.00;0.00;;;;;22.98;43.16;101731.88;5041755;28;45136;-63
2021/05/29 07:12:48;;;;;;;;;0.00;0.00;;;;;22.94;43.27;101736.78;5041658;28;45375;-64
2021/05/29 07:15:14;;;;;;;;;0.00;0.00;;;;;22.86;42.58;101742.19;5042479;28;45509;-64
2021/05/29 07:17:42;;;;;;;;;0.00;0.00;;;;;22.64;42.48;101733.09;5041889;28;46917;-63
2021/05/29 07:20:09;;;;;;;;;0.00;0.00;;;;;22.51;41.00;101744.34;5040501;28;45280;-62
2021/05/29 07:22:36;;;;;;;;;0.00;0.00;;;;;22.26;41.57;101744.41;5046460;28;45387;-64
2021/05/29 07:25:03;;;;;;;;;0.00;0.00;;;;;22.15;40.89;101749.28;5042526;28;45358;-64
2021/05/29 07:27:28;;;;;;;;;0.00;0.00;;;;;21.97;41.89;101738.78;5041396;28;46339;-63
2021/05/29 07:29:56;;;;;;;;;0.00;0.00;;;;;21.84;42.44;101742.81;5035598;28;45652;-63
2021/05/29 07:32:21;;;;;;;;;0.00;0.00;;;;;21.83;42.63;101738.44;5047774;28;45226;-63
2021/05/29 07:34:46;;;;;;;;;0.00;0.00;;;;;21.80;42.40;101743.31;5042154;28;45272;-65
2021/05/29 07:37:12;;;;;;;;;0.00;0.00;;;;;21.66;41.69;101739.47;5042728;28;46287;-63
2021/05/29 07:39:37;;;;;;;;;0.00;0.00;;;;;21.59;42.28;101750.00;5054246;28;45294;-62
2021/05/29 07:42:03;;;;;;;;;0.00;0.00;;;;;21.56;41.77;101744.19;5041042;28;45227;-64
2021/05/29 07:44:28;;;;;;;;;0.00;0.00;;;;;21.73;42.66;101737.81;5041591;28;45489;-64
2021/05/29 07:46:54;;;;;;;;;0.00;0.00;;;;;21.84;41.95;101750.00;5041635;28;45477;-63
2021/05/29 07:49:19;;;;;;;;;0.00;0.00;;;;;21.94;41.70;101749.81;5041534;28;45482;-64
2021/05/29 07:51:44;;;;;;;;;0.00;0.00;;;;;21.99;41.15;101752.84;5041470;28;45526;-63
2021/05/29 07:54:11;;;;;;;;;0.00;0.00;;;;;22.06;41.05;101753.81;5041573;28;45307;-63
2021/05/29 07:56:37;;;;;;;;;0.00;0.00;;;;;22.27;41.17;101758.66;5041077;28;46359;-64
2021/05/29 07:59:17;;;;;;;;;0.00;0.00;;;;;22.51;40.54;101757.75;5041124;28;45363;-64
2021/05/29 08:01:42;;;;;;;;;0.00;0.00;;;;;22.71;40.85;101748.28;5041214;28;45544;-63
2021/05/29 08:04:08;;;;;;;;;0.00;0.00;;;;;23.00;40.13;101754.88;5041384;28;45530;-63
2021/05/29 08:06:36;;;;;;;;;0.00;0.00;;;;;23.21;38.10;101764.09;5040335;28;46109;-64
2021/05/29 08:09:05;;;;;;;;;0.00;0.00;;;;;23.50;39.05;101764.25;5023429;28;45395;-64
2021/05/29 08:11:30;;;;;;;;;0.00;0.00;;;;;23.89;38.61;101755.22;5022862;28;45445;-63
2021/05/29 08:13:57;;;;;;;;;0.00;0.00;;;;;24.20;37.74;101762.28;5041217;28;45445;-63
2021/05/29 08:16:24;;;;;;;;;0.00;0.00;;;;;24.39;35.93;101758.22;5041132;28;45333;-62
2021/05/29 08:18:51;;;;;;;;;5.25;5.25;;;;;24.62;35.64;101757.28;5041189;28;45276;-66
2021/05/29 08:21:17;;;;;;;;;0.00;0.00;;;;;24.81;34.66;101759.38;5046417;28;45450;-62
2021/05/29 08:23:42;;;;;;;;;0.00;0.00;;;;;24.85;35.24;101757.97;5038110;28;45247;-65
2021/05/29 08:26:08;;;;;;;;;0.00;0.00;;;;;25.10;34.59;101754.97;5026712;28;47841;-64
2021/05/29 08:28:34;;;;;;;;;0.00;0.00;;;;;25.42;34.95;101761.72;5040576;28;45286;-64
2021/05/29 08:31:00;;;;;;;;;0.00;0.00;;;;;25.80;34.11;101766.81;5040690;28;45221;-66
2021/05/29 08:33:25;;;;;;;;;0.00;0.00;;;;;25.97;31.35;101768.19;5023035;28;45527;-64
2021/05/29 08:35:51;;;;;;;;;0.00;0.00;;;;;26.20;32.88;101772.50;5040733;28;45281;-65
2021/05/29 08:38:17;;;;;;;;;0.00;0.00;;;;;26.55;30.10;101770.63;5040790;28;45203;-64
2021/05/29 08:40:43;;;;;;;;;0.00;0.00;;;;;26.76;30.94;101772.41;5040245;28;45482;-64
2021/05/29 08:43:09;;;;;;;;;0.00;0.00;;;;;26.93;30.75;101762.09;5040469;28;45361;-64
2021/05/29 08:45:34;;;;;;;;;0.00;0.00;;;;;27.13;30.47;101761.31;5040196;28;45614;-65
2021/05/29 08:47:59;;;;;;;;;0.25;0.00;;;;;27.09;29.86;101760.06;5040514;28;45363;-64
2021/05/29 08:50:25;;;;;;;;;0.00;0.00;;;;;26.89;31.03;101765.38;5040363;28;45216;-66
2021/05/29 08:52:51;;;;;;;;;0.00;0.00;;;;;27.10;29.48;101772.50;5040083;28;45356;-64
2021/05/29 08:55:18;;;;;;;;;0.00;0.00;;;;;27.84;29.51;101766.19;5040149;28;46234;-66
2021/05/29 08:57:44;;;;;;;;;0.00;0.00;;;;;29.13;28.61;101769.13;5040762;28;45213;-65
2021/05/29 09:00:13;;;;;;;;;0.00;0.00;;;;;30.41;26.91;101765.94;5039984;28;45265;-64
2021/05/29 09:02:57;;;;;;;;;0.00;0.00;;;;;31.27;23.34;101763.97;5040219;28;45619;-65
2021/05/29 09:05:33;;;;;;;;;0.00;0.00;;;;;30.85;23.00;101771.22;5039931;28;46281;-65
2021/05/29 09:08:10;;;;;;;;;0.00;0.00;;;;;31.00;24.42;101773.56;5039895;28;45314;-64
2021/05/29 09:10:39;;;;;;;;;0.00;0.00;;;;;31.70;22.57;101772.91;5039889;28;45355;-63
2021/05/29 09:13:16;;;;;;;;;0.00;0.00;;;;;32.16;23.35;101776.69;5040090;28;45469;-67
2021/05/29 09:15:48;;;;;;;;;0.00;0.00;;;;;32.53;22.49;101770.97;5040389;28;45406;-64
2021/05/29 09:18:23;;;;;;;;;0.00;0.00;;;;;32.82;21.02;101777.25;5044061;28;45305;-66
2021/05/29 09:20:48;;;;;;;;;0.00;0.00;;;;;32.88;21.26;101781.72;5047449;28;45476;-66
2021/05/29 09:23:14;;;;;;;;;0.00;0.00;;;;;32.66;21.06;101783.47;5044670;28;45393;-66
2021/05/29 09:25:56;;;;;;;;;0.00;0.00;;;;;32.34;20.83;101774.91;5043261;28;45332;-65
2021/05/29 09:28:23;;;;;;;;;0.00;0.00;;;;;32.13;20.65;101781.78;5043218;28;45459;-66
2021/05/29 09:30:51;;;;;;;;;0.00;0.00;;;;;32.03;21.35;101785.09;5043232;28;45242;-64
2021/05/29 09:33:28;;;;;;;;;0.00;0.00;;;;;32.26;22.07;101781.53;5043078;28;45386;-64
2021/05/29 09:36:03;;;;;;;;;0.00;0.00;;;;;32.13;21.81;101774.44;5042896;28;46596;-66
2021/05/29 09:38:40;;;;;;;;;0.00;0.00;;;;;30.95;19.97;101784.25;5042867;28;45344;-67
2021/05/29 09:41:17;;;;;;;;;0.00;0.00;;;;;30.31;21.27;101771.06;5042897;28;45306;-63
2021/05/29 09:43:54;;;;;;;;;0.00;0.00;;;;;30.27;20.73;101786.91;5042629;28;45297;-63
2021/05/29 09:46:19;;;;;;;;;0.00;0.00;;;;;30.79;21.03;101770.25;5039656;28;47343;-65
2021/05/29 09:48:53;;;;;;;;;0.00;0.00;;;;;32.10;21.33;101772.22;5046679;28;45241;-64
2021/05/29 09:51:20;;;;;;;;;0.00;0.00;;;;;33.45;19.84;101777.28;5059097;28;45496;-64
2021/05/29 09:53:51;;;;;;;;;0.00;0.00;;;;;34.57;19.33;101780.81;5060500;28;45467;-64
2021/05/29 09:56:31;;;;;;;;;0.00;0.00;;;;;35.37;18.45;101785.75;5052094;28;46604;-64
2021/05/29 09:59:09;;;;;;;;;0.00;0.00;;;;;35.15;17.57;101785.84;5052755;28;45284;-64
2021/05/29 10:01:35;;;;;;;;;0.00;0.00;;;;;34.71;17.88;101787.56;5053759;28;45422;-64
2021/05/29 10:04:01;;;;;;;;;0.00;0.00;;;;;34.09;17.76;101785.09;5048457;28;45418;-64
2021/05/29 10:06:27;;;;;;;;;0.00;0.00;;;;;33.59;18.67;101792.25;5052831;28;45380;-65
2021/05/29 10:08:53;;;;;;;;;0.00;0.00;;;;;33.62;17.62;101785.47;5052151;28;45403;-65
2021/05/29 10:11:18;;;;;;;;;0.00;0.00;;;;;33.85;17.75;101798.09;5052594;28;45556;-67
2021/05/29 10:13:43;;;;;;;;;0.00;0.00;;;;;34.22;18.97;101786.66;5051637;28;45381;-67
2021/05/29 10:16:10;;;;;;;;;0.00;0.00;;;;;34.29;16.51;101779.91;5050751;28;46560;-66
2021/05/29 10:18:36;;;;;;;;;0.00;0.00;;;;;34.75;18.51;101793.31;5051933;28;45380;-66
2021/05/29 10:21:01;;;;;;;;;0.00;0.00;;;;;35.91;18.05;101791.06;5047986;28;45280;-66
2021/05/29 10:23:28;;;;;;;;;0.00;0.00;;;;;37.36;15.57;101786.63;5053267;28;45503;-66
2021/05/29 10:25:58;;;;;;;;;0.00;0.00;;;;;37.93;14.21;101792.91;5053110;28;46465;-63
2021/05/29 10:28:24;;;;;;;;;0.75;0.75;;;;;38.01;12.58;101793.41;5049563;28;45424;-66
2021/05/29 10:30:51;;;;;;;;;0.00;0.00;;;;;38.58;14.15;101789.41;5052904;28;45431;-63
2021/05/29 10:33:19;;;;;;;;;0.00;0.00;;;;;39.68;14.43;101805.63;5049622;28;45375;-64
2021/05/29 10:35:46;;;;;;;;;0.00;0.00;;;;;40.19;13.54;101799.56;5051989;28;46198;-68
2021/05/29 10:38:13;;;;;;;;;0.00;0.00;;;;;40.23;13.05;101808.88;5049659;28;45335;-65
2021/05/29 10:40:48;;;;;;;;;0.00;0.00;;;;;39.75;13.40;101800.63;5034971;28;45269;-72
2021/05/29 10:43:28;;;;;;;;;0.00;0.00;;;;;39.76;13.50;101796.75;5054826;28;46437;-63
2021/05/29 10:45:53;;;;;;;;;0.00;0.00;;;;;39.50;14.36;101804.44;5048988;28;46303;-63
2021/05/29 10:48:26;;;;;;;;;0.00;0.00;;;;;38.36;12.54;101795.22;5048840;28;45370;-60
2021/05/29 10:51:06;;;;;;;;;0.00;0.00;;;;;37.02;14.26;101796.44;5049258;28;45551;-65
2021/05/29 10:53:47;;;;;;;;;0.00;0.00;;;;;35.74;14.46;101811.19;5052012;28;45374;-61
2021/05/29 10:56:15;;;;;;;;;0.00;0.00;;;;;34.13;16.19;101807.22;5050933;28;46532;-63
2021/05/29 10:59:19;;;;;;;;;0.00;0.00;;;;;32.67;17.41;101804.97;5053809;28;45748;-60
2021/05/29 11:01:45;;;;;;;;;0.00;0.00;;;;;32.01;18.14;101798.94;5050851;28;45533;-60
2021/05/29 11:04:16;;;;;;;;;0.00;0.00;;;;;31.87;18.86;101798.28;5057911;28;45301;-61
2021/05/29 11:06:49;;;;;;;;;1.00;0.00;;;;;32.01;19.30;101790.78;5038889;28;47318;-62
2021/05/29 11:09:18;;;;;;;;;0.00;0.00;;;;;31.63;19.56;101799.34;5053628;28;45429;-62
2021/05/29 11:14:15;;;;;;;;;0.00;0.00;;;;;30.90;20.08;101798.50;5055016;28;45325;-62
2021/05/29 11:16:46;;;;;;;;;0.00;0.00;;;;;30.33;20.16;101797.94;5052458;28;46512;-62
2021/05/29 11:19:33;;;;;;;;;0.00;0.00;;;;;30.23;20.90;101791.13;5054156;28;45455;-61
2021/05/29 11:22:18;;;;;;;;;0.00;0.00;;;;;30.20;20.87;101799.69;5052900;28;45473;-60
2021/05/29 11:24:59;;;;;;;;;0.00;0.00;;;;;29.90;21.03;101794.16;5043499;28;45282;-61
2021/05/29 11:27:33;;;;;;;;;0.00;0.00;;;;;29.61;21.47;101784.78;5047611;28;46344;-62
2021/05/29 11:30:04;;;;;;;;;0.00;0.00;;;;;29.61;21.35;101790.22;5053695;28;45322;-61
2021/05/29 11:33:32;;;;;;;;;0.00;0.00;;;;;29.44;21.93;101792.66;5053281;28;45372;-62
2021/05/29 11:35:34;;;;;;;;;0.00;0.00;;;;;29.28;21.32;101793.16;5045071;28;46788;-61
2021/05/29 11:38:08;;;;;;;;;0.00;0.00;;;;;29.03;22.03;101793.91;5036623;28;48061;-62
2021/05/29 11:40:54;;;;;;;;;0.00;0.00;;;;;28.93;22.13;101785.44;5049406;28;45257;-62
2021/05/29 11:43:34;;;;;;;;;0.00;0.00;;;;;28.33;22.05;101791.84;5048475;28;45266;-62
2021/05/29 11:46:01;;;;;;;;;0.00;0.00;;;;;27.97;22.59;101793.19;5046279;28;45392;-62